Time;durP1;ratioP1;P1;durP2;ratioP2;P2;SDS_P1;SDS_P2;PMS_P1;PMS_P2;Temp;Humidity;BMP_temperature;BMP_pressure;BME280_temperature;BME280_humidity;BME280_pressure;Samples;Min_cycle;Max_cycle;Signal;HPM_P1;HPM_P2
2024/04/13 00:00:33;;;;;;;6.63;3.25;;;16.30;99.90;;;;;;5456929;26;20051;-74
2024/04/13 00:02:59;;;;;;;5.10;3.47;;;16.20;99.90;;;;;;5482106;26;20071;-75
2024/04/13 00:05:26;;;;;;;8.00;3.30;;;16.20;99.90;;;;;;5454517;26;19998;-75
2024/04/13 00:07:53;;;;;;;6.25;3.90;;;16.20;99.90;;;;;;5481515;26;20006;-75
2024/04/13 00:10:19;;;;;;;8.48;3.40;;;16.20;99.90;;;;;;5478059;26;19994;-75
2024/04/13 00:12:44;;;;;;;6.00;3.20;;;16.20;99.90;;;;;;5460192;26;20413;-75
2024/04/13 00:15:10;;;;;;;5.68;2.80;;;16.10;99.90;;;;;;5474807;26;20458;-74
2024/04/13 00:17:35;;;;;;;8.45;4.07;;;16.10;99.90;;;;;;5456973;26;20005;-74
2024/04/13 00:20:01;;;;;;;6.03;3.17;;;16.10;99.90;;;;;;5480997;26;20008;-75
2024/04/13 00:22:26;;;;;;;5.22;3.03;;;16.10;99.90;;;;;;5482203;26;20005;-75
2024/04/13 00:24:52;;;;;;;4.43;2.78;;;16.10;99.90;;;;;;5480747;26;20026;-75
2024/04/13 00:27:19;;;;;;;5.20;2.60;;;16.10;99.90;;;;;;5477995;26;20335;-75
2024/04/13 00:29:45;;;;;;;5.55;2.60;;;16.00;99.90;;;;;;5459728;26;19990;-75
2024/04/13 00:32:10;;;;;;;5.95;3.10;;;16.00;99.90;;;;;;5481054;26;20004;-74
2024/04/13 00:34:36;;;;;;;3.63;2.67;;;16.00;99.90;;;;;;5456354;26;20363;-74
2024/04/13 00:37:05;;;;;;;6.32;3.33;;;16.00;99.90;;;;;;5458791;26;20468;-74
2024/04/13 00:39:31;;;;;;;5.28;3.00;;;16.00;99.90;;;;;;5470334;26;19999;-74
2024/04/13 00:41:57;;;;;;;5.32;2.83;;;16.00;99.90;;;;;;5464561;26;20010;-74
2024/04/13 00:44:22;;;;;;;5.07;2.70;;;16.00;99.90;;;;;;5475934;26;20006;-75
2024/04/13 00:46:49;;;;;;;5.95;3.03;;;15.90;99.90;;;;;;5461107;26;20076;-74
2024/04/13 00:49:19;;;;;;;5.03;2.80;;;15.90;99.90;;;;;;5455386;26;20003;-74
2024/04/13 00:51:48;;;;;;;4.63;2.80;;;15.90;99.90;;;;;;5455877;26;20013;-74
2024/04/13 00:54:17;;;;;;;5.13;2.53;;;16.00;99.90;;;;;;5462709;26;19995;-74
2024/04/13 00:56:48;;;;;;;6.50;2.90;;;15.90;99.90;;;;;;5469879;26;19998;-74
2024/04/13 00:59:18;;;;;;;5.30;2.70;;;15.90;99.90;;;;;;5461216;26;20002;-74
2024/04/13 01:01:46;;;;;;;6.00;2.65;;;15.90;99.90;;;;;;5481324;26;20002;-74
2024/04/13 01:04:13;;;;;;;4.38;2.80;;;15.90;99.90;;;;;;5466369;26;20010;-75
2024/04/13 01:06:39;;;;;;;6.03;3.10;;;15.90;99.90;;;;;;5470333;26;20029;-74
2024/04/13 01:09:04;;;;;;;5.70;2.72;;;15.90;99.90;;;;;;5455309;26;20468;-74
2024/04/13 01:11:30;;;;;;;5.07;2.38;;;15.90;99.90;;;;;;5481277;26;20490;-74
2024/04/13 01:13:57;;;;;;;7.32;2.70;;;15.90;99.90;;;;;;5454870;26;20544;-75
2024/04/13 01:16:29;;;;;;;6.80;2.97;;;15.90;99.90;;;;;;5462678;26;19995;-74
2024/04/13 01:18:55;;;;;;;5.40;2.40;;;15.80;99.90;;;;;;5469489;26;20072;-74
2024/04/13 01:21:21;;;;;;;5.15;3.00;;;15.80;99.90;;;;;;5461875;26;20021;-75
2024/04/13 01:24:08;;;;;;;5.65;2.80;;;15.80;99.90;;;;;;5457178;26;20487;-74
2024/04/13 01:26:41;;;;;;;5.55;2.88;;;15.80;99.90;;;;;;5463435;26;20453;-74
2024/04/13 01:29:10;;;;;;;4.85;2.60;;;15.70;99.90;;;;;;5474847;26;20246;-74
2024/04/13 01:31:37;;;;;;;4.78;2.60;;;15.70;99.90;;;;;;5462098;26;20002;-74
2024/04/13 01:34:04;;;;;;;5.90;2.65;;;15.70;99.90;;;;;;5454399;26;20375;-75
2024/04/13 01:36:41;;;;;;;4.75;2.50;;;15.70;99.90;;;;;;5466579;26;19999;-74
2024/04/13 01:39:13;;;;;;;5.32;2.65;;;15.70;99.90;;;;;;5472062;26;20006;-75
2024/04/13 01:41:57;;;;;;;4.25;2.55;;;15.60;99.90;;;;;;5463889;26;19999;-75
2024/04/13 01:44:38;;;;;;;5.03;2.95;;;15.60;99.90;;;;;;5469220;26;20010;-74
2024/04/13 01:47:05;;;;;;;6.25;2.65;;;15.60;99.90;;;;;;5464212;26;20016;-75
2024/04/13 01:49:30;;;;;;;4.72;2.22;;;15.60;99.90;;;;;;5454658;26;20352;-74
2024/04/13 01:51:56;;;;;;;7.38;3.03;;;15.60;99.90;;;;;;5454848;26;19998;-75
2024/04/13 01:54:22;;;;;;;4.03;2.40;;;15.60;99.90;;;;;;5459773;26;19999;-75
2024/04/13 01:56:47;;;;;;;5.00;2.90;;;15.60;99.90;;;;;;5475063;26;19998;-75
2024/04/13 01:59:13;;;;;;;5.05;3.15;;;15.60;99.90;;;;;;5480059;26;19998;-75
2024/04/13 02:01:39;;;;;;;5.22;2.90;;;15.60;99.90;;;;;;5454702;26;19999;-74
2024/04/13 02:04:06;;;;;;;4.97;2.95;;;15.50;99.90;;;;;;5465278;26;20034;-75
2024/04/13 02:06:31;;;;;;;4.85;2.65;;;15.50;99.90;;;;;;5467996;26;20083;-75
2024/04/13 02:08:57;;;;;;;4.50;2.70;;;15.50;99.90;;;;;;5452434;26;20010;-75
2024/04/13 02:11:22;;;;;;;4.93;2.92;;;15.40;99.90;;;;;;5478448;26;20006;-75
2024/04/13 02:13:48;;;;;;;5.32;2.80;;;15.40;99.90;;;;;;5479420;26;19998;-75
2024/04/13 02:16:14;;;;;;;9.23;3.22;;;15.40;99.90;;;;;;5464129;26;20003;-74
2024/04/13 02:18:40;;;;;;;7.28;3.13;;;15.40;99.90;;;;;;5468808;26;20446;-75
2024/04/13 02:21:05;;;;;;;5.90;3.15;;;15.30;99.90;;;;;;5456975;26;20013;-75
2024/04/13 02:23:31;;;;;;;9.38;3.30;;;15.30;99.90;;;;;;5477831;26;20002;-75
2024/04/13 02:25:58;;;;;;;6.20;3.10;;;15.20;99.90;;;;;;5470773;26;19998;-74
2024/04/13 02:28:24;;;;;;;8.93;3.42;;;15.20;99.90;;;;;;5441496;26;20052;-74
2024/04/13 02:30:50;;;;;;;5.50;2.63;;;15.20;99.90;;;;;;5469141;26;19999;-75
2024/04/13 02:33:15;;;;;;;5.90;2.83;;;15.20;99.90;;;;;;5441277;26;20013;-75
2024/04/13 02:35:41;;;;;;;6.70;3.30;;;15.20;99.90;;;;;;5468969;26;20103;-75
2024/04/13 02:38:08;;;;;;;6.57;3.20;;;15.20;99.90;;;;;;5456965;26;20508;-75
2024/04/13 02:40:34;;;;;;;4.47;2.78;;;15.20;99.90;;;;;;5455393;26;20645;-75
2024/04/13 02:43:03;;;;;;;6.38;3.50;;;15.20;99.90;;;;;;5478271;26;20135;-75
2024/04/13 02:45:29;;;;;;;3.92;2.70;;;15.10;99.90;;;;;;5457743;26;20075;-75
2024/04/13 02:47:54;;;;;;;5.88;3.20;;;15.10;99.90;;;;;;5468863;26;20010;-75
2024/04/13 02:50:20;;;;;;;5.82;3.47;;;15.20;99.90;;;;;;5449780;26;20015;-75
2024/04/13 02:52:47;;;;;;;6.55;2.90;;;15.10;99.90;;;;;;5464645;26;20072;-75
2024/04/13 02:55:13;;;;;;;6.32;3.17;;;15.10;99.90;;;;;;5453768;26;20002;-75
2024/04/13 02:57:40;;;;;;;5.47;3.10;;;15.00;99.90;;;;;;5458939;26;20013;-75
2024/04/13 03:00:07;;;;;;;4.35;2.78;;;15.00;99.90;;;;;;5472086;26;20010;-74
2024/04/13 03:02:33;;;;;;;5.93;2.97;;;15.10;99.90;;;;;;5479683;26;19998;-75
2024/04/13 03:05:00;;;;;;;5.03;2.80;;;15.00;99.90;;;;;;5475447;26;20515;-75
2024/04/13 03:07:26;;;;;;;5.18;2.92;;;15.00;99.90;;;;;;5455010;26;20002;-74
2024/04/13 03:09:52;;;;;;;5.30;2.88;;;15.00;99.90;;;;;;5455365;26;20051;-76
2024/04/13 03:12:17;;;;;;;4.47;2.72;;;15.00;99.90;;;;;;5468710;26;20010;-75
2024/04/13 03:14:44;;;;;;;5.20;3.50;;;15.00;99.90;;;;;;5461319;26;19998;-75
2024/04/13 03:17:10;;;;;;;5.07;2.92;;;14.90;99.90;;;;;;5453929;26;20317;-75
2024/04/13 03:19:36;;;;;;;4.35;2.53;;;14.90;99.90;;;;;;5464964;26;20136;-74
2024/04/13 03:22:02;;;;;;;5.93;3.08;;;14.90;99.90;;;;;;5473573;26;20002;-75
2024/04/13 03:24:29;;;;;;;6.85;3.10;;;14.90;99.90;;;;;;5482217;26;20001;-75
2024/04/13 03:26:55;;;;;;;4.78;3.00;;;14.80;99.90;;;;;;5459214;26;20018;-75
2024/04/13 03:29:20;;;;;;;5.20;3.25;;;14.80;99.90;;;;;;5471135;26;19999;-75
2024/04/13 03:31:47;;;;;;;5.88;3.50;;;14.70;99.90;;;;;;5466262;26;20002;-74
2024/04/13 03:34:13;;;;;;;5.57;3.22;;;14.70;99.90;;;;;;5476852;26;20010;-75
2024/04/13 03:36:40;;;;;;;5.45;3.10;;;14.70;99.90;;;;;;5444206;26;19994;-75
2024/04/13 03:39:06;;;;;;;6.50;3.35;;;14.70;99.90;;;;;;5471516;26;20002;-74
2024/04/13 03:41:32;;;;;;;5.38;3.38;;;14.70;99.90;;;;;;5444749;26;20013;-75
2024/04/13 03:43:59;;;;;;;6.57;3.80;;;14.70;99.90;;;;;;5476290;26;20443;-75
2024/04/13 03:46:25;;;;;;;8.00;3.20;;;14.60;99.90;;;;;;5482546;26;20005;-75
2024/04/13 03:48:51;;;;;;;6.10;3.65;;;14.60;99.90;;;;;;5458981;26;20677;-75
2024/04/13 03:51:16;;;;;;;5.97;3.38;;;14.60;99.90;;;;;;5453147;26;20003;-75
2024/04/13 03:53:42;;;;;;;6.63;3.25;;;14.60;99.90;;;;;;5470347;26;20351;-75
2024/04/13 03:56:09;;;;;;;7.07;3.40;;;14.50;99.90;;;;;;5467182;26;20010;-75
2024/04/13 03:58:34;;;;;;;5.53;3.78;;;14.50;99.90;;;;;;5454096;26;20013;-74
2024/04/13 04:01:01;;;;;;;5.45;3.45;;;14.50;99.90;;;;;;5464124;26;20027;-74
2024/04/13 04:03:26;;;;;;;5.85;3.50;;;14.50;99.90;;;;;;5470766;26;19998;-74
2024/04/13 04:05:54;;;;;;;6.35;3.72;;;14.50;99.90;;;;;;5459081;26;20017;-75
2024/04/13 04:08:19;;;;;;;5.47;3.70;;;14.50;99.90;;;;;;5457007;26;20086;-75
2024/04/13 04:10:45;;;;;;;7.47;3.97;;;14.50;99.90;;;;;;5455737;26;20002;-75
2024/04/13 04:13:11;;;;;;;6.43;3.60;;;14.50;99.90;;;;;;5482165;26;19998;-75
2024/04/13 04:15:37;;;;;;;8.60;3.75;;;14.50;99.90;;;;;;5455432;26;20043;-74
2024/04/13 04:18:03;;;;;;;8.52;4.55;;;14.50;99.90;;;;;;5463474;26;20452;-75
2024/04/13 04:20:35;;;;;;;8.95;4.47;;;14.40;99.90;;;;;;5470095;26;20002;-75
2024/04/13 04:23:01;;;;;;;5.75;3.75;;;14.40;99.90;;;;;;5461580;26;20006;-74
2024/04/13 04:25:27;;;;;;;7.10;4.45;;;14.40;99.90;;;;;;5454812;26;20052;-74
2024/04/13 04:27:52;;;;;;;9.63;4.32;;;14.40;99.90;;;;;;5469173;26;20823;-75
2024/04/13 04:30:18;;;;;;;7.40;3.97;;;14.40;99.90;;;;;;5441606;26;20014;-74
2024/04/13 04:32:44;;;;;;;7.65;4.50;;;14.30;99.90;;;;;;5443061;26;20002;-74
2024/04/13 04:35:10;;;;;;;7.70;4.53;;;14.30;99.90;;;;;;5464344;26;20043;-74
2024/04/13 04:37:36;;;;;;;5.90;3.78;;;14.30;99.90;;;;;;5455925;26;20002;-74
2024/04/13 04:40:02;;;;;;;8.60;4.57;;;14.30;99.90;;;;;;5464532;26;20003;-74
2024/04/13 04:42:31;;;;;;;6.50;3.97;;;14.20;99.90;;;;;;5471971;26;20099;-74
2024/04/13 04:44:57;;;;;;;9.25;4.28;;;14.20;99.90;;;;;;5466828;26;20099;-74
2024/04/13 04:47:22;;;;;;;6.10;4.47;;;14.20;99.90;;;;;;5469865;26;20380;-74
2024/04/13 04:49:48;;;;;;;7.05;4.43;;;14.20;99.90;;;;;;5451921;26;20470;-74
2024/04/13 04:52:17;;;;;;;6.50;3.92;;;14.20;99.90;;;;;;5458845;26;20458;-75
2024/04/13 04:54:43;;;;;;;9.40;4.53;;;14.20;99.90;;;;;;5480568;26;20013;-75
2024/04/13 04:57:08;;;;;;;7.60;4.68;;;14.10;99.90;;;;;;5481136;26;19998;-75
2024/04/13 04:59:34;;;;;;;8.13;5.00;;;14.10;99.90;;;;;;5480774;26;20009;-75
2024/04/13 05:02:00;;;;;;;6.28;4.13;;;14.10;99.90;;;;;;5455844;26;20859;-75
2024/04/13 05:04:26;;;;;;;7.93;4.28;;;14.10;99.90;;;;;;5478455;26;19994;-75
2024/04/13 05:06:53;;;;;;;7.55;4.15;;;14.10;99.90;;;;;;5455606;26;20017;-74
2024/04/13 05:09:19;;;;;;;8.25;5.20;;;14.10;99.90;;;;;;5464571;26;20486;-75
2024/04/13 05:11:45;;;;;;;8.52;4.28;;;14.10;99.90;;;;;;5466850;26;20070;-75
2024/04/13 05:14:15;;;;;;;10.27;5.07;;;14.10;99.90;;;;;;5478767;26;20393;-76
2024/04/13 05:16:41;;;;;;;6.72;4.40;;;14.10;99.90;;;;;;5458151;26;20014;-74
2024/04/13 05:19:07;;;;;;;8.43;4.97;;;14.10;99.90;;;;;;5469612;26;20002;-75
2024/04/13 05:21:32;;;;;;;8.15;4.57;;;14.10;99.90;;;;;;5464111;26;20010;-75
2024/04/13 05:23:58;;;;;;;8.02;4.70;;;14.10;99.90;;;;;;5480525;26;19998;-75
2024/04/13 05:26:25;;;;;;;7.20;4.53;;;14.10;99.90;;;;;;5465608;26;20451;-75
2024/04/13 05:28:51;;;;;;;9.60;5.57;;;14.10;99.90;;;;;;5469485;26;20038;-75
2024/04/13 05:31:16;;;;;;;7.93;4.63;;;14.10;99.90;;;;;;5457243;26;20103;-75
2024/04/13 05:33:44;;;;;;;10.10;4.95;;;14.10;99.90;;;;;;5457088;26;20513;-75
2024/04/13 05:36:10;;;;;;;8.25;4.97;;;14.20;99.90;;;;;;5476879;26;20013;-75
2024/04/13 05:38:36;;;;;;;9.68;4.60;;;14.20;99.90;;;;;;5460872;26;20003;-75
2024/04/13 05:41:01;;;;;;;8.43;5.07;;;14.20;99.90;;;;;;5469143;26;20389;-75
2024/04/13 05:43:27;;;;;;;8.88;4.63;;;14.20;99.90;;;;;;5467535;26;20012;-75
2024/04/13 05:45:53;;;;;;;7.82;4.97;;;14.30;99.90;;;;;;5454644;26;20013;-75
2024/04/13 05:48:20;;;;;;;7.35;4.55;;;14.30;99.90;;;;;;5466450;26;20010;-75
2024/04/13 05:50:59;;;;;;;8.90;4.82;;;14.30;99.90;;;;;;5450608;26;19999;-75
2024/04/13 05:53:25;;;;;;;11.60;5.55;;;14.30;99.90;;;;;;5470087;26;20014;-75
2024/04/13 05:55:51;;;;;;;11.27;5.72;;;14.30;99.90;;;;;;5459980;26;20470;-75
2024/04/13 05:58:17;;;;;;;9.60;6.03;;;14.40;99.90;;;;;;5455301;26;19995;-75
2024/04/13 06:00:44;;;;;;;9.23;4.93;;;14.40;99.90;;;;;;5479446;26;19998;-75
2024/04/13 06:03:09;;;;;;;9.35;5.38;;;14.40;99.90;;;;;;5456058;26;20294;-75
2024/04/13 06:05:35;;;;;;;9.27;5.15;;;14.40;99.90;;;;;;5469131;26;19995;-75
2024/04/13 06:08:01;;;;;;;9.82;5.22;;;14.50;99.90;;;;;;5464778;26;20132;-74
2024/04/13 06:10:27;;;;;;;10.27;5.57;;;14.50;99.90;;;;;;5479478;26;20002;-75
2024/04/13 06:12:53;;;;;;;7.90;5.13;;;14.60;99.90;;;;;;5479983;26;20570;-75
2024/04/13 06:15:18;;;;;;;8.40;5.63;;;14.60;99.90;;;;;;5475616;26;20002;-75
2024/04/13 06:17:44;;;;;;;8.13;4.85;;;14.70;99.90;;;;;;5463634;26;20013;-75
2024/04/13 06:20:11;;;;;;;10.05;6.07;;;14.70;99.90;;;;;;5475216;26;20006;-75
2024/04/13 06:22:37;;;;;;;10.45;5.30;;;14.70;99.90;;;;;;5466706;26;19990;-75
2024/04/13 06:25:04;;;;;;;9.95;5.97;;;14.80;99.90;;;;;;5456379;26;20043;-75
2024/04/13 06:27:30;;;;;;;9.38;5.45;;;14.80;99.90;;;;;;5479623;26;20002;-74
2024/04/13 06:29:56;;;;;;;8.52;5.50;;;14.80;99.90;;;;;;5478011;26;20502;-74
2024/04/13 06:32:21;;;;;;;9.27;5.07;;;14.90;99.90;;;;;;5479499;26;19994;-74
2024/04/13 06:34:47;;;;;;;10.05;6.00;;;14.90;99.90;;;;;;5478831;26;20026;-75
2024/04/13 06:37:13;;;;;;;9.38;5.45;;;15.00;99.90;;;;;;5479740;26;20017;-74
2024/04/13 06:39:39;;;;;;;12.48;6.45;;;15.00;99.90;;;;;;5477409;26;20038;-74
2024/04/13 06:42:05;;;;;;;10.98;6.60;;;15.10;99.90;;;;;;5479800;26;20013;-75
2024/04/13 06:44:31;;;;;;;13.20;5.88;;;15.10;99.90;;;;;;5478278;26;20347;-75
2024/04/13 06:46:56;;;;;;;9.00;5.13;;;15.20;99.90;;;;;;5477814;26;20005;-75
2024/04/13 06:49:22;;;;;;;9.32;6.10;;;15.20;99.90;;;;;;5476151;26;19999;-74
2024/04/13 06:51:48;;;;;;;12.07;6.40;;;15.20;99.90;;;;;;5479607;26;20319;-75
2024/04/13 06:54:14;;;;;;;12.65;6.57;;;15.30;99.90;;;;;;5480102;26;20006;-74
2024/04/13 06:56:40;;;;;;;10.82;6.22;;;15.30;99.90;;;;;;5465328;26;20025;-75
2024/04/13 06:59:07;;;;;;;9.55;6.50;;;15.40;99.90;;;;;;5482642;26;19990;-74
2024/04/13 07:01:33;;;;;;;11.20;7.13;;;15.40;99.90;;;;;;5482449;26;19998;-75
2024/04/13 07:03:58;;;;;;;11.40;6.90;;;15.40;99.90;;;;;;5479893;26;20013;-75
2024/04/13 07:06:26;;;;;;;10.15;7.30;;;15.50;99.90;;;;;;5481962;26;20010;-75
2024/04/13 07:08:52;;;;;;;12.27;7.50;;;15.50;99.90;;;;;;5460655;26;20448;-75
2024/04/13 07:11:18;;;;;;;13.80;7.53;;;15.50;99.90;;;;;;5468704;26;19999;-75
2024/04/13 07:13:43;;;;;;;14.02;7.75;;;15.60;99.90;;;;;;5482511;26;20072;-75
2024/04/13 07:16:09;;;;;;;13.32;7.90;;;15.60;99.90;;;;;;5482082;26;20412;-75
2024/04/13 07:18:35;;;;;;;10.13;6.47;;;15.60;99.90;;;;;;5457527;26;20010;-75
2024/04/13 07:21:01;;;;;;;12.35;6.97;;;15.70;99.90;;;;;;5470137;26;20456;-75
2024/04/13 07:23:27;;;;;;;11.02;6.78;;;15.70;99.90;;;;;;5462554;26;20005;-75
2024/04/13 07:26:03;;;;;;;11.93;6.65;;;15.80;99.90;;;;;;5481369;26;19994;-75
2024/04/13 07:28:30;;;;;;;10.32;7.07;;;15.90;99.90;;;;;;5480906;26;20347;-75
2024/04/13 07:30:57;;;;;;;8.80;6.55;;;16.00;99.90;;;;;;5455781;26;19998;-75
2024/04/13 07:33:22;;;;;;;13.80;7.53;;;16.00;99.90;;;;;;5464448;26;20349;-74
2024/04/13 07:35:48;;;;;;;11.80;6.50;;;16.10;99.90;;;;;;5473603;26;20008;-75
2024/04/13 07:38:14;;;;;;;12.65;6.88;;;16.20;99.90;;;;;;5481371;26;20002;-74
2024/04/13 07:40:40;;;;;;;11.52;7.65;;;16.30;99.90;;;;;;5470293;26;20053;-74
2024/04/13 07:43:05;;;;;;;13.20;6.50;;;16.40;99.90;;;;;;5480214;26;20456;-74
2024/04/13 07:45:31;;;;;;;10.32;6.68;;;16.40;99.90;;;;;;5463527;26;19999;-74
2024/04/13 07:47:57;;;;;;;9.38;6.13;;;16.50;99.90;;;;;;5479659;26;20928;-74
2024/04/13 07:50:23;;;;;;;14.18;6.90;;;16.60;99.90;;;;;;5460981;26;20002;-75
2024/04/13 07:52:49;;;;;;;10.65;6.63;;;16.70;99.90;;;;;;5462363;26;20024;-74
2024/04/13 07:55:14;;;;;;;9.15;6.47;;;16.80;99.90;;;;;;5468902;26;20009;-74
2024/04/13 07:57:40;;;;;;;9.30;6.95;;;16.90;99.90;;;;;;5471439;26;20020;-74
2024/04/13 08:00:08;;;;;;;12.77;7.10;;;16.90;99.90;;;;;;5480786;26;19998;-74
2024/04/13 08:02:33;;;;;;;11.88;7.68;;;17.10;99.90;;;;;;5480393;26;20005;-74
2024/04/13 08:04:59;;;;;;;13.43;7.25;;;17.10;99.90;;;;;;5479667;26;20038;-74
2024/04/13 08:07:25;;;;;;;9.35;6.20;;;17.20;99.90;;;;;;5480494;26;20365;-74
2024/04/13 08:09:50;;;;;;;10.07;6.50;;;17.30;99.90;;;;;;5481008;26;19994;-73
2024/04/13 08:12:17;;;;;;;8.98;6.38;;;17.30;99.90;;;;;;5480445;26;19994;-74
2024/04/13 08:14:42;;;;;;;13.43;7.60;;;17.30;99.90;;;;;;5480445;26;20057;-74
2024/04/13 08:17:08;;;;;;;10.70;6.20;;;17.40;99.90;;;;;;5451016;26;20085;-74
2024/04/13 08:19:34;;;;;;;10.27;6.07;;;17.50;99.90;;;;;;5459245;26;20017;-74
2024/04/13 08:21:59;;;;;;;9.15;6.45;;;17.60;99.90;;;;;;5454809;26;20003;-74
2024/04/13 08:24:25;;;;;;;8.30;5.68;;;17.70;99.90;;;;;;5479617;26;20017;-74
2024/04/13 08:26:51;;;;;;;9.70;6.20;;;17.70;99.90;;;;;;5458558;26;20522;-74
2024/04/13 08:29:17;;;;;;;9.88;5.63;;;17.80;99.90;;;;;;5470801;26;20118;-74
2024/04/13 08:31:43;;;;;;;10.88;6.05;;;17.80;99.90;;;;;;5460091;26;20031;-74
2024/04/13 08:34:10;;;;;;;9.40;6.40;;;17.90;99.90;;;;;;5452650;26;20179;-74
2024/04/13 08:36:36;;;;;;;9.27;5.82;;;17.90;99.90;;;;;;5461914;26;19999;-74
2024/04/13 08:39:02;;;;;;;8.77;5.45;;;18.00;99.90;;;;;;5467803;26;20026;-74
2024/04/13 08:41:40;;;;;;;8.90;6.22;;;18.10;99.90;;;;;;5477150;26;20009;-75
2024/04/13 08:44:08;;;;;;;10.50;6.10;;;18.20;99.90;;;;;;5477220;26;19998;-75
2024/04/13 08:46:35;;;;;;;11.02;6.45;;;18.30;99.90;;;;;;5455931;26;20552;-74
2024/04/13 08:49:02;;;;;;;9.85;6.75;;;18.30;99.90;;;;;;5458367;26;20014;-73
2024/04/13 08:51:31;;;;;;;10.82;6.47;;;18.40;99.90;;;;;;5453300;26;20468;-74
2024/04/13 08:54:00;;;;;;;10.02;6.35;;;18.40;99.90;;;;;;5467369;26;20471;-74
2024/04/13 08:56:27;;;;;;;11.32;5.70;;;18.50;99.90;;;;;;5469102;26;20080;-73
2024/04/13 08:59:00;;;;;;;10.15;5.85;;;18.50;99.90;;;;;;5455526;26;20355;-73
2024/04/13 09:01:25;;;;;;;10.23;5.72;;;18.50;99.90;;;;;;5479543;26;20002;-73
2024/04/13 09:03:51;;;;;;;8.73;5.47;;;18.50;99.90;;;;;;5478441;26;20347;-74
2024/04/13 09:06:18;;;;;;;10.75;5.88;;;18.50;99.90;;;;;;5459679;26;20040;-73
2024/04/13 09:08:46;;;;;;;9.27;5.55;;;18.60;99.90;;;;;;5469814;26;20072;-74
2024/04/13 09:11:12;;;;;;;8.30;5.38;;;18.60;99.90;;;;;;5460221;26;20013;-74
2024/04/13 09:13:38;;;;;;;7.15;5.18;;;18.60;99.90;;;;;;5454564;26;20002;-73
2024/04/13 09:16:06;;;;;;;12.82;6.00;;;18.70;99.90;;;;;;5468018;26;20042;-73
2024/04/13 09:18:33;;;;;;;8.32;5.25;;;18.70;99.90;;;;;;5475498;26;20002;-73
2024/04/13 09:21:01;;;;;;;8.88;6.45;;;18.80;99.90;;;;;;5459007;26;20031;-74
2024/04/13 09:23:29;;;;;;;10.45;6.50;;;18.90;99.90;;;;;;5452883;26;20050;-74
2024/04/13 09:26:05;;;;;;;10.18;6.50;;;18.90;99.90;;;;;;5476601;26;20337;-73
2024/04/13 09:28:46;;;;;;;8.63;6.07;;;19.00;99.90;;;;;;5478237;26;20002;-72
2024/04/13 09:31:13;;;;;;;11.13;7.47;;;19.10;99.90;;;;;;5461733;26;20518;-73
2024/04/13 09:33:40;;;;;;;14.80;6.80;;;19.20;99.90;;;;;;5480402;26;20030;-73
2024/04/13 09:36:08;;;;;;;10.40;6.03;;;19.20;99.90;;;;;;5458523;26;20595;-73
2024/04/13 09:38:35;;;;;;;10.55;6.22;;;19.30;99.90;;;;;;5479454;26;19998;-73
2024/04/13 09:41:01;;;;;;;11.15;6.32;;;19.30;99.90;;;;;;5464559;26;20001;-73
2024/04/13 09:43:27;;;;;;;13.30;6.65;;;19.40;99.90;;;;;;5468491;26;20096;-73
2024/04/13 09:46:01;;;;;;;13.30;6.55;;;19.40;99.90;;;;;;5475953;26;20093;-73
2024/04/13 09:48:27;;;;;;;9.95;6.60;;;19.50;99.90;;;;;;5461843;26;20436;-74
2024/04/13 09:50:53;;;;;;;14.38;6.78;;;19.60;99.90;;;;;;5446234;26;20516;-73
2024/04/13 09:53:18;;;;;;;11.05;6.57;;;19.70;99.90;;;;;;5471378;26;19998;-73
2024/04/13 09:55:45;;;;;;;13.00;7.10;;;19.80;99.90;;;;;;5477577;26;20002;-73
2024/04/13 09:58:14;;;;;;;12.90;7.20;;;19.70;99.90;;;;;;5478799;26;20002;-73
2024/04/13 10:00:46;;;;;;;11.45;6.90;;;19.80;99.90;;;;;;5455044;26;20013;-73
2024/04/13 10:03:15;;;;;;;12.93;6.97;;;19.90;99.90;;;;;;5455793;26;19999;-73
2024/04/13 10:05:43;;;;;;;9.77;5.97;;;20.00;99.90;;;;;;5454912;26;20018;-73
2024/04/13 10:08:10;;;;;;;11.75;7.50;;;20.00;99.90;;;;;;5480447;26;20077;-73
2024/04/13 10:10:39;;;;;;;13.35;6.68;;;20.10;99.90;;;;;;5452470;26;20015;-74
2024/04/13 10:13:06;;;;;;;10.55;7.00;;;20.20;99.90;;;;;;5460751;26;20076;-73
2024/04/13 10:15:33;;;;;;;9.32;6.57;;;20.40;99.90;;;;;;5468786;26;20487;-74
2024/04/13 10:18:01;;;;;;;9.77;6.22;;;20.40;99.90;;;;;;5460637;26;20006;-73
2024/04/13 10:20:28;;;;;;;10.27;6.40;;;20.40;99.90;;;;;;5479111;26;19994;-73
2024/04/13 10:23:01;;;;;;;12.65;6.88;;;20.50;99.90;;;;;;5479802;26;20005;-73
2024/04/13 10:25:30;;;;;;;12.00;7.10;;;20.50;99.90;;;;;;5454208;26;19999;-73
2024/04/13 10:28:20;;;;;;;12.07;6.43;;;20.60;99.90;;;;;;5464487;26;20013;-73
2024/04/13 10:30:48;;;;;;;9.27;6.03;;;20.70;99.90;;;;;;5473178;26;20050;-73
2024/04/13 10:33:25;;;;;;;10.57;5.93;;;20.70;99.90;;;;;;5464062;26;20562;-73
2024/04/13 10:36:05;;;;;;;8.50;4.82;;;20.90;99.90;;;;;;5445022;26;20003;-73
2024/04/13 10:38:35;;;;;;;12.07;5.43;;;21.00;99.90;;;;;;5461437;26;20010;-73
2024/04/13 10:41:01;;;;;;;8.13;4.53;;;21.10;99.90;;;;;;5467993;26;20014;-73
2024/04/13 10:43:28;;;;;;;8.45;4.85;;;21.20;99.90;;;;;;5465138;26;19994;-73
2024/04/13 10:45:56;;;;;;;9.73;5.78;;;21.20;99.90;;;;;;5453396;26;20121;-73
2024/04/13 10:48:24;;;;;;;8.90;4.45;;;21.30;99.90;;;;;;5465920;26;20017;-73
2024/04/13 10:50:51;;;;;;;10.25;4.80;;;21.40;99.90;;;;;;5445778;26;20018;-73
2024/04/13 10:53:19;;;;;;;12.38;4.47;;;21.50;99.90;;;;;;5468963;26;20074;-73
2024/04/13 10:55:45;;;;;;;8.27;4.38;;;21.60;99.90;;;;;;5457516;26;20002;-73
2024/04/13 10:58:11;;;;;;;7.25;3.60;;;21.70;99.90;;;;;;5454080;26;20439;-73
2024/04/13 11:00:37;;;;;;;7.13;3.97;;;21.80;99.90;;;;;;5467499;26;19999;-73
2024/04/13 11:03:04;;;;;;;7.72;4.35;;;21.80;99.90;;;;;;5465795;26;20002;-73
2024/04/13 11:05:30;;;;;;;7.80;3.97;;;21.90;99.90;;;;;;5451221;26;20002;-73
2024/04/13 11:07:56;;;;;;;8.60;3.90;;;22.00;99.90;;;;;;5460076;26;20011;-73
2024/04/13 11:10:22;;;;;;;5.43;3.28;;;22.00;99.90;;;;;;5472167;26;19998;-73
2024/04/13 11:12:49;;;;;;;9.57;4.50;;;22.10;99.90;;;;;;5463476;26;20035;-73
2024/04/13 11:15:15;;;;;;;7.30;3.88;;;22.20;99.90;;;;;;5467595;26;20017;-73
2024/04/13 11:17:41;;;;;;;6.95;3.42;;;22.20;99.90;;;;;;5454987;26;20522;-73
2024/04/13 11:20:07;;;;;;;8.15;3.47;;;22.30;99.90;;;;;;5454710;26;20011;-73
2024/04/13 11:22:33;;;;;;;8.48;3.88;;;22.30;99.90;;;;;;5468377;26;20028;-73
2024/04/13 11:25:00;;;;;;;6.13;3.33;;;22.40;99.90;;;;;;5461968;26;20009;-73
2024/04/13 11:27:25;;;;;;;10.50;3.25;;;22.40;99.90;;;;;;5478529;26;20025;-73
2024/04/13 11:29:51;;;;;;;8.30;2.80;;;22.50;99.90;;;;;;5462046;26;20496;-74
2024/04/13 11:32:17;;;;;;;4.72;2.58;;;22.50;99.90;;;;;;5467419;26;20440;-73
2024/04/13 11:34:44;;;;;;;7.45;2.50;;;22.60;99.90;;;;;;5455401;26;20002;-73
2024/04/13 11:37:13;;;;;;;5.22;2.58;;;22.70;99.90;;;;;;5478555;26;20329;-73
2024/04/13 11:39:40;;;;;;;6.72;3.17;;;22.70;99.90;;;;;;5453659;26;20016;-74
2024/04/13 11:42:12;;;;;;;7.55;3.10;;;22.80;99.90;;;;;;5463388;26;20529;-73
2024/04/13 11:44:40;;;;;;;6.25;2.85;;;22.70;99.90;;;;;;5473937;26;20013;-73
2024/04/13 11:47:06;;;;;;;7.50;2.30;;;22.80;99.90;;;;;;5463275;26;20010;-74
2024/04/13 11:49:32;;;;;;;6.70;2.38;;;22.80;99.90;;;;;;5476944;26;20010;-73
2024/04/13 11:51:58;;;;;;;7.00;2.63;;;22.90;99.90;;;;;;5470921;26;20444;-73
2024/04/13 11:54:27;;;;;;;5.05;2.58;;;23.00;99.90;;;;;;5466733;26;19998;-73
2024/04/13 11:56:53;;;;;;;5.35;2.78;;;23.10;99.90;;;;;;5455383;26;20002;-73
2024/04/13 11:59:19;;;;;;;9.93;2.63;;;23.10;99.90;;;;;;5482716;26;19997;-73
2024/04/13 12:01:45;;;;;;;4.07;2.30;;;23.00;99.90;;;;;;5478897;26;20012;-73
2024/04/13 12:04:11;;;;;;;5.97;2.20;;;23.10;99.90;;;;;;5459518;26;20447;-73
2024/04/13 12:06:39;;;;;;;5.20;2.30;;;23.10;99.90;;;;;;5481623;26;20002;-73
2024/04/13 12:09:05;;;;;;;5.93;2.33;;;23.20;99.90;;;;;;5457116;26;19998;-74
2024/04/13 12:11:30;;;;;;;4.15;1.80;;;23.20;99.90;;;;;;5459614;26;20074;-74
2024/04/13 12:14:04;;;;;;;5.55;1.98;;;23.30;99.90;;;;;;5472326;26;20013;-74
2024/04/13 12:16:30;;;;;;;7.05;2.00;;;23.40;99.90;;;;;;5466725;26;20354;-74
2024/04/13 12:18:56;;;;;;;6.80;2.28;;;23.40;99.90;;;;;;5457638;26;20050;-73
2024/04/13 12:21:21;;;;;;;6.13;2.00;;;23.60;99.90;;;;;;5466301;26;19998;-73
2024/04/13 12:23:47;;;;;;;4.82;2.05;;;23.60;99.60;;;;;;5471999;26;20010;-74
2024/04/13 12:26:12;;;;;;;6.38;2.10;;;23.60;99.40;;;;;;5458330;26;19998;-74
2024/04/13 12:28:40;;;;;;;4.57;1.85;;;23.70;98.90;;;;;;5458011;26;20003;-74
2024/04/13 12:31:06;;;;;;;6.43;2.50;;;23.80;98.70;;;;;;5471032;26;20472;-73
2024/04/13 12:33:32;;;;;;;7.68;2.40;;;23.80;98.30;;;;;;5466960;26;20090;-73
2024/04/13 12:35:58;;;;;;;5.38;2.78;;;23.90;98.40;;;;;;5481941;26;20026;-74
2024/04/13 12:38:27;;;;;;;8.65;2.45;;;24.00;98.30;;;;;;5466152;26;20006;-74
2024/04/13 12:40:54;;;;;;;6.22;2.53;;;24.00;97.50;;;;;;5447525;26;20010;-74
2024/04/13 12:43:19;;;;;;;4.95;2.00;;;24.00;97.40;;;;;;5482679;26;20017;-74